• Join FlightAware (Why Join?)
  • Login
  • US Flag 
12:35AM EST


 

Airport Tracker/Info


-or-


 

Live Flight TrackerFlight Track Log ✈ SWA2236 ✈ 15-Jul-2013 ✈ KABQ - KOAK

Flight Track Log - Related Links

Times and Time Zones

All times are in EDT time to prevent confusion due to time zone crossing. See the SWA2236 flight status page for this flight to view local times or setup timezone preferences in your user account.

Time Position Orientation Groundspeed Altitude Reporting Facility
EDT Latitude Longitude Course Direction KTS MPH feet Rate Location/Type
09:15AM 35.0450 -106.5503 87° East 170 196 7,200  Level Albuquerque Center
09:15AM 35.0689 -106.5194 47° Northeast 243 280 8,300 1,800 Climbing Albuquerque Center
09:16AM 35.1203 -106.5708 321° Northwest 242 278 10,400 1,920 Climbing Albuquerque Center
09:17AM 35.1372 -106.6675 282° West 310 357 12,300 2,400 Climbing Albuquerque Center
09:18AM 35.1367 -106.7856 270° West 346 398 15,400 2,700 Climbing Albuquerque Center
09:19AM 35.1325 -106.9097 268° West 376 433 17,900 2,640 Climbing Albuquerque Center
09:20AM 35.1303 -107.0625 269° West 384 442 20,800 2,520 Climbing Albuquerque Center
09:22AM 35.1275 -107.2036 269° West 413 475 23,100 2,220 Climbing Albuquerque Center
09:23AM 35.1483 -107.3472 280° West 427 491 25,300 1,980 Climbing Albuquerque Center
09:24AM 35.1692 -107.4925 280° West 431 496 27,100 1,800 Climbing Albuquerque Center
09:25AM 35.1900 -107.6431 280° West 446 513 29,000 1,680 Climbing Albuquerque Center
09:26AM 35.2106 -107.7883 280° West 451 519 30,600 1,860 Climbing Albuquerque Center
09:27AM 35.2344 -107.9603 280° West 456 525 32,800 1,860 Climbing Albuquerque Center
09:28AM 35.2547 -108.1053 280° West 453 521 34,500 1,620 Climbing Albuquerque Center
09:29AM 35.2756 -108.2494 280° West 450 518 36,100 1,620 Climbing Albuquerque Center
09:30AM 35.2975 -108.4183 279° West 448 516 37,800 1,440 Climbing Albuquerque Center
09:31AM 35.3178 -108.5603 280° West 444 511 39,100 1,080 Climbing Albuquerque Center
09:32AM 35.3369 -108.7031 279° West 467 537 40,000 420 Climbing Albuquerque Center
09:33AM 35.3594 -108.8675 280° West 441 507 40,000  Level Albuquerque Center
09:34AM 35.3786 -109.0094 279° West 438 504 40,000  Level Albuquerque Center
09:35AM 35.3967 -109.1514 279° West 441 507 40,000  Level Albuquerque Center
09:36AM 35.4181 -109.3133 279° West 433 498 40,000  Level Albuquerque Center
09:37AM 35.4367 -109.4517 279° West 430 495 40,000  Level Albuquerque Center
09:38AM 35.4525 -109.5906 278° West 429 494 40,000  Level Albuquerque Center
09:39AM 35.4725 -109.7503 279° West 425 489 40,000  Level Albuquerque Center
09:40AM 35.4886 -109.8869 278° West 423 487 40,000  Level Albuquerque Center
09:41AM 35.5058 -110.0239 279° West 423 487 40,000  Level Albuquerque Center
09:42AM 35.5233 -110.1839 278° West 424 488 40,000  Level Albuquerque Center
09:43AM 35.5389 -110.3211 278° West 425 489 40,000  Level Albuquerque Center
09:44AM 35.5553 -110.4597 278° West 426 490 40,000  Level Albuquerque Center
09:45AM 35.5750 -110.6219 279° West 428 493 40,000  Level Albuquerque Center
09:46AM 35.5911 -110.7606 278° West 428 493 40,000  Level Albuquerque Center
09:47AM 35.6097 -110.9231 278° West 430 495 40,000  Level Albuquerque Center
09:48AM 35.6261 -111.0625 278° West 430 495 40,000  Level Albuquerque Center
09:49AM 35.6442 -111.2047 279° West 437 503 40,000  Level Albuquerque Center
09:50AM 35.6622 -111.3686 278° West 436 502 40,000  Level Albuquerque Center
09:51AM 35.6761 -111.5131 277° West 436 502 40,000  Level Albuquerque Center
09:52AM 35.6928 -111.6583 278° West 435 501 40,000  Level Albuquerque Center
09:53AM 35.7011 -111.7450 277° West 432 497 40,000  Level Los Angeles Center
09:54AM 35.7169 -111.8903 278° West 432 497 40,000  Level Los Angeles Center
09:55AM 35.7344 -112.0611 277° West 426 490 40,000  Level Los Angeles Center
09:56AM 35.7497 -112.2053 277° West 427 491 40,000  Level Los Angeles Center
09:57AM 35.7661 -112.3483 278° West 426 490 40,000  Level Los Angeles Center
09:58AM 35.7794 -112.4903 277° West 423 487 40,000  Level Los Angeles Center
09:59AM 35.7942 -112.6314 277° West 420 483 40,000  Level Los Angeles Center
10:00AM 35.8119 -112.8019 277° West 423 487 40,000  Level Los Angeles Center
10:01AM 35.8250 -112.9458 276° West 427 491 40,000  Level Los Angeles Center
10:02AM 35.8397 -113.0889 277° West 428 493 40,000  Level Los Angeles Center
10:03AM 35.8525 -113.2311 276° West 424 488 40,000  Level Los Angeles Center
10:04AM 35.8672 -113.3736 277° West 425 489 40,000  Level Los Angeles Center
10:05AM 35.8825 -113.5478 276° West 429 494 40,000  Level Los Angeles Center
10:06AM 35.8967 -113.7036 276° West 434 499 40,000  Level Los Angeles Center
10:07AM 35.9100 -113.8519 276° West 435 501 40,000  Level Los Angeles Center
10:08AM 35.9239 -114.0008 277° West 435 501 40,000  Level Los Angeles Center
10:09AM 35.9361 -114.1492 276° West 434 499 40,000  Level Los Angeles Center
10:10AM 35.9467 -114.2689 276° West 435 501 40,000  Level Los Angeles Center
10:11AM 35.9603 -114.4475 275° West 435 501 40,000  Level Los Angeles Center
10:12AM 35.9728 -114.5953 276° West 432 497 40,000  Level Los Angeles Center
10:13AM 35.9847 -114.7436 276° West 433 498 40,000  Level Los Angeles Center
10:14AM 36.0197 -114.9181 284° West 442 509 40,000  Level Los Angeles Center
10:15AM 36.0792 -115.0525 299° West 446 513 40,000  Level Los Angeles Center
10:16AM 36.1372 -115.1872 298° West 446 513 40,000  Level Los Angeles Center
10:17AM 36.1975 -115.3239 299° West 449 517 40,000  Level Los Angeles Center
10:18AM 36.2558 -115.4581 298° West 442 509 40,000  Level Los Angeles Center
10:19AM 36.3181 -115.6064 298° West 451 519 40,000  Level Los Angeles Center
10:21AM 36.3781 -115.7453 298° West 449 517 40,000  Level Los Angeles Center
10:22AM 36.4356 -115.8797 298° West 444 511 40,000  Level Los Angeles Center
10:23AM 36.4925 -116.0119 298° West 439 505 40,000  Level Los Angeles Center
10:24AM 36.5506 -116.1492 298° West 444 511 40,000  Level Los Angeles Center
10:25AM 36.6178 -116.3167 297° West 448 516 40,000  Level Los Angeles Center
10:26AM 36.6750 -116.4558 297° West 450 518 40,000  Level Los Angeles Center
10:27AM 36.7214 -116.5653 298° West 450 518 40,000  Level Los Angeles Center
10:28AM 36.7925 -116.7297 298° West 449 517 40,000  Level Los Angeles Center
10:29AM 36.9142 -116.8475 322° Northwest 460 529 40,000  Level Los Angeles Center
10:30AM 37.0225 -116.9311 328° Northwest 459 528 40,000  Level Los Angeles Center
10:31AM 37.1292 -117.0217 326° Northwest 460 529 40,000  Level Los Angeles Center
10:32AM 37.2567 -117.1297 326° Northwest 459 528 40,000  Level Los Angeles Center
10:33AM 37.3406 -117.2025 325° Northwest 459 528 40,000  Level Los Angeles Center
10:34AM 37.4256 -117.3478 306° West 442 509 40,000  Level Los Angeles Center
10:35AM 37.4456 -117.4936 280° West 424 488 40,000  Level Los Angeles Center
10:36AM 37.4675 -117.6419 281° West 428 493 40,000  Level Los Angeles Center
10:37AM 37.4903 -117.7903 281° West 430 495 40,000  Level Los Angeles Center
10:38AM 37.5125 -117.9397 281° West 431 496 40,000  Level Los Angeles Center
10:39AM 37.5336 -118.0897 280° West 433 498 40,000 -360 Level Los Angeles Center
10:40AM 37.5561 -118.2531 280° West 433 498 39,300 -840 Descending Los Angeles Center
10:41AM 37.5803 -118.4203 280° West 436 502 38,300 -660 Descending Los Angeles Center
10:42AM 37.6014 -118.5725 280° West 439 505 38,000 -180 Descending Los Angeles Center
10:43AM 37.6222 -118.7242 280° West 439 505 38,000  Level Los Angeles Center
10:44AM 37.6431 -118.8761 280° West 439 505 38,000  Level Los Angeles Center
10:46AM 37.6689 -119.1000 278° West 437 503 38,000  Level Oakland Center
10:47AM 37.6881 -119.2511 279° West 437 503 38,000  Level Oakland Center
10:48AM 37.7089 -119.4028 280° West 438 504 38,000 -480 Level Oakland Center
10:49AM 37.7278 -119.5522 279° West 432 497 37,100 -960 Descending Oakland Center
10:50AM 37.7478 -119.7019 280° West 432 497 36,100 -960 Descending Oakland Center
10:51AM 37.7664 -119.8556 279° West 441 507 35,200 -1,320 Descending Oakland Center
10:52AM 37.7858 -120.0094 279° West 443 510 33,500 -1,860 Descending Oakland Center
10:53AM 37.8039 -120.1581 279° West 430 495 31,400 -2,100 Descending Oakland Center
10:54AM 37.8206 -120.3006 278° West 416 479 29,300 -2,220 Descending Oakland Center
10:55AM 37.8414 -120.4642 279° West 396 456 27,000 -2,100 Descending Oakland Center
10:56AM 37.8567 -120.5950 278° West 381 438 25,000 -1,980 Descending Oakland Center
10:57AM 37.8667 -120.7333 275° West 363 418 22,800 -2,040 Descending Northern Cal TRACON
10:58AM 37.8333 -120.8667 252° West 353 406 20,800 -1,920 Descending Northern Cal TRACON
10:59AM 37.8000 -120.9833 250° West 344 396 19,000 -1,800 Descending Northern Cal TRACON
11:00AM 37.7833 -121.0833 258° West 345 397 17,200 -1,920 Descending Northern Cal TRACON
11:01AM 37.7667 -121.2000 260° West 351 404 15,400 -1,860 Descending Northern Cal TRACON
11:02AM 37.7333 -121.3000 247° West 335 386 13,700 -1,740 Descending Northern Cal TRACON
11:03AM 37.7167 -121.4167 260° West 327 376 12,000 -1,680 Descending Northern Cal TRACON
11:04AM 37.6833 -121.5167 247° West 319 367 10,400 -1,440 Descending Northern Cal TRACON
11:05AM 37.6667 -121.6167 258° West 293 337 9,200 -1,680 Descending Northern Cal TRACON
11:06AM 37.6500 -121.7000 256° West 286 329 7,300 -1,800 Descending Northern Cal TRACON
11:07AM 37.6167 -121.8000 247° West 284 327 5,800 -1,500 Descending Northern Cal TRACON
11:08AM 37.5833 -121.8833 243° Southwest 276 318 4,400 -960 Descending Northern Cal TRACON
11:09AM 37.5833 -121.9667 270° West 255 293 4,000 -660 Descending Northern Cal TRACON
11:10AM 37.5833 -122.0500 270° West 222 255 3,200 -900 Descending Northern Cal TRACON
11:11AM 37.6333 -122.1000 322° Northwest 211 243 2,300 -900 Descending Northern Cal TRACON
11:12AM 37.6500 -122.1500 293° West 160 184 1,400 -900 Descending Northern Cal TRACON
11:13AM 37.6833 -122.1833 322° Northwest 128 147 700 14,160 Descending Northern Cal TRACON
11:14AM 37.7100 -122.2283 307° West 126 145 38,000 22,140 Climbing Oakland Center
11:17AM 37.7167 -122.2167 270° West  Level FlightAware Approximate